Aviation Digital Data Service (ADDS)

Output produced by TAFs form (1920 UTC 16 August 2017)
found at http://www.aviationweather.gov/adds/tafs/
 
KMDT 161739Z 1618/1718 31005KT P6SM SCT050 
     FM170000 VRB02KT P6SM SKC 
     FM170800 00000KT 3SM BR SCT004 
     FM171000 00000KT 1SM BR BKN004 
     FM171300 13005KT 6SM HZ BKN100